N0,26 Fumimaru — JK5398 — position and weather

sailwx.info

Track history (hours):
 
Tides and Currents Weather Stations Pressure Air Temp Water Temp Dewpoint Dewpoint Depression Visibility Wind Speed Wind Dir Waves Ship Positions

N0,26 Fumimaru

Last reported at 2015-Aug-21 01:11 UTC. Time now 2015-Sep-02 12:48 UTC.
Position N 34°31' E 135°17'.
Warning: this ship's position is 12 days out of date.

Length 39 m.

Type: Ship. MMSI: 431400427.

Date/timePositionNaut miles runAvg speedWind from/ knotsBaromVisibWave heightAir tempDewpointWater temp
2015-Aug-21 01:11N 34°31' E 135°17'223 5.9
2015-Aug-19 11:33N 35°09' E 139°44'10 7.7
2015-Aug-19 10:12N 35°19' E 139°43'5 8.5
2015-Aug-19 09:33N 35°25' E 139°43'9 8.7
2015-Aug-19 08:33N 35°30' E 139°51'9 8.8
2015-Aug-19 07:33N 35°33' E 140°02'4 4.2
2015-Aug-19 06:31N 35°33' E 140°07'0 0.0
2015-Aug-19 05:28N 35°33' E 140°07'0 0.0
2015-Aug-19 04:28N 35°33' E 140°07'0 0.0
2015-Aug-19 03:28N 35°33' E 140°07'0 0.1
2015-Aug-19 02:33N 35°33' E 140°07'3 3.4
2015-Aug-19 01:31N 35°33' E 140°03'0 0.0
2015-Aug-19 00:31N 35°33' E 140°03'0 0.0
2015-Aug-18 23:31N 35°33' E 140°03'0 0.0
2015-Aug-18 22:26N 35°33' E 140°03'0 0.0
2015-Aug-18 21:31N 35°33' E 140°03'6 5.7
2015-Aug-18 20:31N 35°31' E 139°56'1010.7
2015-Aug-18 19:33N 35°24' E 139°46'1110.5
2015-Aug-18 18:32N 35°13' E 139°47'10 9.8
2015-Aug-18 17:34N 35°05' E 139°42'  
Track history (hours):
 
Tides and Currents Weather Stations Pressure Air Temp Water Temp Dewpoint Dewpoint Depression Visibility Wind Speed Wind Dir Waves Ship Positions

N0,26 Fumimaru

Last reported at 2015-Aug-21 01:11 UTC. Time now 2015-Sep-02 12:48 UTC.
Position N 34°31' E 135°17'.
Warning: this ship's position is 12 days out of date.

Length 39 m.

Type: Ship. MMSI: 431400427.

Date/timePositionNaut miles runAvg speedWind from/ knotsBaromVisibWave heightAir tempDewpointWater temp
2015-Aug-21 01:11N 34°31' E 135°17'223 5.9
2015-Aug-19 11:33N 35°09' E 139°44'10 7.7
2015-Aug-19 10:12N 35°19' E 139°43'5 8.5
2015-Aug-19 09:33N 35°25' E 139°43'9 8.7
2015-Aug-19 08:33N 35°30' E 139°51'9 8.8
2015-Aug-19 07:33N 35°33' E 140°02'4 4.2
2015-Aug-19 06:31N 35°33' E 140°07'0 0.0
2015-Aug-19 05:28N 35°33' E 140°07'0 0.0
2015-Aug-19 04:28N 35°33' E 140°07'0 0.0
2015-Aug-19 03:28N 35°33' E 140°07'0 0.1
2015-Aug-19 02:33N 35°33' E 140°07'3 3.4
2015-Aug-19 01:31N 35°33' E 140°03'0 0.0
2015-Aug-19 00:31N 35°33' E 140°03'0 0.0
2015-Aug-18 23:31N 35°33' E 140°03'0 0.0
2015-Aug-18 22:26N 35°33' E 140°03'0 0.0
2015-Aug-18 21:31N 35°33' E 140°03'6 5.7
2015-Aug-18 20:31N 35°31' E 139°56'1010.7
2015-Aug-18 19:33N 35°24' E 139°46'1110.5
2015-Aug-18 18:32N 35°13' E 139°47'10 9.8
2015-Aug-18 17:34N 35°05' E 139°42'  

Dump ship's entire track history